sensor_id;sensor_type;location;lat;lon;timestamp;P1;durP1;ratioP1;P2;durP2;ratioP2
44842;SDS011;31884;52.538;13.820;2024-02-04T00:00:08;10.55;;;1.88;;
44842;SDS011;31884;52.538;13.820;2024-02-04T00:02:33;10.77;;;1.77;;
44842;SDS011;31884;52.538;13.820;2024-02-04T00:04:59;7.22;;;2.05;;
44842;SDS011;31884;52.538;13.820;2024-02-04T00:07:24;12.77;;;1.98;;
44842;SDS011;31884;52.538;13.820;2024-02-04T00:09:50;9.07;;;1.70;;
44842;SDS011;31884;52.538;13.820;2024-02-04T00:12:15;10.15;;;2.15;;
44842;SDS011;31884;52.538;13.820;2024-02-04T00:14:41;12.30;;;2.35;;
44842;SDS011;31884;52.538;13.820;2024-02-04T00:17:06;8.63;;;2.25;;
44842;SDS011;31884;52.538;13.820;2024-02-04T00:19:32;6.43;;;1.80;;
44842;SDS011;31884;52.538;13.820;2024-02-04T00:21:57;5.30;;;1.45;;
44842;SDS011;31884;52.538;13.820;2024-02-04T00:24:22;7.63;;;2.17;;
44842;SDS011;31884;52.538;13.820;2024-02-04T00:26:48;4.88;;;2.20;;
44842;SDS011;31884;52.538;13.820;2024-02-04T00:29:14;5.93;;;1.50;;
44842;SDS011;31884;52.538;13.820;2024-02-04T00:31:39;5.10;;;1.55;;
44842;SDS011;31884;52.538;13.820;2024-02-04T00:34:05;15.70;;;2.60;;
44842;SDS011;31884;52.538;13.820;2024-02-04T00:36:30;8.98;;;2.10;;
44842;SDS011;31884;52.538;13.820;2024-02-04T00:38:56;9.10;;;1.85;;
44842;SDS011;31884;52.538;13.820;2024-02-04T00:41:21;12.07;;;2.20;;
44842;SDS011;31884;52.538;13.820;2024-02-04T00:43:47;11.07;;;2.00;;
44842;SDS011;31884;52.538;13.820;2024-02-04T00:46:12;11.02;;;2.47;;
44842;SDS011;31884;52.538;13.820;2024-02-04T00:48:38;13.70;;;1.85;;
44842;SDS011;31884;52.538;13.820;2024-02-04T00:51:05;14.52;;;2.25;;
44842;SDS011;31884;52.538;13.820;2024-02-04T00:53:31;9.63;;;2.38;;
44842;SDS011;31884;52.538;13.820;2024-02-04T00:56:02;8.45;;;1.90;;
44842;SDS011;31884;52.538;13.820;2024-02-04T00:58:28;13.77;;;2.05;;
44842;SDS011;31884;52.538;13.820;2024-02-04T01:00:54;9.63;;;1.73;;
44842;SDS011;31884;52.538;13.820;2024-02-04T01:03:19;10.23;;;2.15;;
44842;SDS011;31884;52.538;13.820;2024-02-04T01:05:45;9.48;;;1.75;;
44842;SDS011;31884;52.538;13.820;2024-02-04T01:08:10;11.10;;;2.28;;
44842;SDS011;31884;52.538;13.820;2024-02-04T01:10:36;11.50;;;2.45;;
44842;SDS011;31884;52.538;13.820;2024-02-04T01:13:01;8.80;;;1.80;;
44842;SDS011;31884;52.538;13.820;2024-02-04T01:15:28;9.90;;;2.38;;
44842;SDS011;31884;52.538;13.820;2024-02-04T01:17:53;9.70;;;1.90;;
44842;SDS011;31884;52.538;13.820;2024-02-04T01:20:18;8.52;;;2.42;;
44842;SDS011;31884;52.538;13.820;2024-02-04T01:22:44;15.60;;;3.15;;
44842;SDS011;31884;52.538;13.820;2024-02-04T01:25:09;6.28;;;1.83;;
44842;SDS011;31884;52.538;13.820;2024-02-04T01:27:35;15.68;;;2.30;;
44842;SDS011;31884;52.538;13.820;2024-02-04T01:30:00;8.27;;;1.80;;
44842;SDS011;31884;52.538;13.820;2024-02-04T01:32:26;6.75;;;2.00;;
44842;SDS011;31884;52.538;13.820;2024-02-04T01:34:51;5.93;;;1.90;;
44842;SDS011;31884;52.538;13.820;2024-02-04T01:37:17;8.00;;;1.85;;
44842;SDS011;31884;52.538;13.820;2024-02-04T01:39:43;13.32;;;2.33;;
44842;SDS011;31884;52.538;13.820;2024-02-04T01:42:08;8.80;;;2.30;;
44842;SDS011;31884;52.538;13.820;2024-02-04T01:44:35;13.25;;;2.00;;
44842;SDS011;31884;52.538;13.820;2024-02-04T01:47:01;8.20;;;1.83;;
44842;SDS011;31884;52.538;13.820;2024-02-04T01:49:27;9.02;;;1.67;;
44842;SDS011;31884;52.538;13.820;2024-02-04T01:51:52;8.13;;;1.95;;
44842;SDS011;31884;52.538;13.820;2024-02-04T01:54:18;14.48;;;2.10;;
44842;SDS011;31884;52.538;13.820;2024-02-04T01:56:48;8.95;;;1.70;;
44842;SDS011;31884;52.538;13.820;2024-02-04T01:59:14;10.70;;;1.60;;
44842;SDS011;31884;52.538;13.820;2024-02-04T02:01:40;7.20;;;1.60;;
44842;SDS011;31884;52.538;13.820;2024-02-04T02:04:08;10.35;;;1.88;;
44842;SDS011;31884;52.538;13.820;2024-02-04T02:06:33;10.73;;;2.50;;
44842;SDS011;31884;52.538;13.820;2024-02-04T02:09:06;23.98;;;2.30;;
44842;SDS011;31884;52.538;13.820;2024-02-04T02:11:41;8.75;;;1.92;;
44842;SDS011;31884;52.538;13.820;2024-02-04T02:14:14;9.13;;;1.80;;
44842;SDS011;31884;52.538;13.820;2024-02-04T02:16:44;12.00;;;2.17;;
44842;SDS011;31884;52.538;13.820;2024-02-04T02:25:01;9.23;;;1.92;;
44842;SDS011;31884;52.538;13.820;2024-02-04T02:27:29;8.57;;;2.60;;
44842;SDS011;31884;52.538;13.820;2024-02-04T02:29:55;13.00;;;2.38;;
44842;SDS011;31884;52.538;13.820;2024-02-04T02:32:21;7.88;;;1.85;;
44842;SDS011;31884;52.538;13.820;2024-02-04T02:34:46;11.10;;;2.78;;
44842;SDS011;31884;52.538;13.820;2024-02-04T02:37:26;10.80;;;1.80;;
44842;SDS011;31884;52.538;13.820;2024-02-04T02:40:12;13.40;;;2.17;;
44842;SDS011;31884;52.538;13.820;2024-02-04T02:42:58;12.38;;;2.03;;
44842;SDS011;31884;52.538;13.820;2024-02-04T02:45:27;6.85;;;1.88;;
44842;SDS011;31884;52.538;13.820;2024-02-04T02:47:53;9.95;;;1.90;;
44842;SDS011;31884;52.538;13.820;2024-02-04T02:50:20;13.68;;;2.13;;
44842;SDS011;31884;52.538;13.820;2024-02-04T02:52:45;8.38;;;2.38;;
44842;SDS011;31884;52.538;13.820;2024-02-04T02:55:11;8.80;;;2.05;;
44842;SDS011;31884;52.538;13.820;2024-02-04T02:57:37;8.27;;;2.00;;
44842;SDS011;31884;52.538;13.820;2024-02-04T03:00:02;13.90;;;2.97;;
44842;SDS011;31884;52.538;13.820;2024-02-04T03:02:30;14.95;;;2.45;;
44842;SDS011;31884;52.538;13.820;2024-02-04T03:04:56;11.13;;;1.77;;
44842;SDS011;31884;52.538;13.820;2024-02-04T03:07:21;11.73;;;2.25;;
44842;SDS011;31884;52.538;13.820;2024-02-04T03:09:47;13.98;;;2.75;;
44842;SDS011;31884;52.538;13.820;2024-02-04T03:12:13;6.55;;;2.08;;
44842;SDS011;31884;52.538;13.820;2024-02-04T03:14:38;11.10;;;1.75;;
44842;SDS011;31884;52.538;13.820;2024-02-04T03:17:03;10.98;;;1.75;;
44842;SDS011;31884;52.538;13.820;2024-02-04T03:19:29;7.78;;;1.98;;
44842;SDS011;31884;52.538;13.820;2024-02-04T03:21:54;12.25;;;2.70;;
44842;SDS011;31884;52.538;13.820;2024-02-04T03:24:20;13.90;;;2.60;;
44842;SDS011;31884;52.538;13.820;2024-02-04T03:26:45;6.43;;;1.52;;
44842;SDS011;31884;52.538;13.820;2024-02-04T03:29:11;7.30;;;2.67;;
44842;SDS011;31884;52.538;13.820;2024-02-04T03:31:36;10.60;;;2.30;;
44842;SDS011;31884;52.538;13.820;2024-02-04T03:34:02;13.10;;;2.83;;
44842;SDS011;31884;52.538;13.820;2024-02-04T03:36:28;13.50;;;2.47;;
44842;SDS011;31884;52.538;13.820;2024-02-04T03:38:53;13.35;;;2.25;;
44842;SDS011;31884;52.538;13.820;2024-02-04T03:41:19;9.40;;;2.30;;
44842;SDS011;31884;52.538;13.820;2024-02-04T03:43:44;13.60;;;2.20;;
44842;SDS011;31884;52.538;13.820;2024-02-04T03:46:13;8.95;;;2.55;;
44842;SDS011;31884;52.538;13.820;2024-02-04T03:48:39;8.32;;;2.53;;
44842;SDS011;31884;52.538;13.820;2024-02-04T03:51:05;7.78;;;2.00;;
44842;SDS011;31884;52.538;13.820;2024-02-04T03:53:31;13.95;;;1.90;;
44842;SDS011;31884;52.538;13.820;2024-02-04T03:55:56;7.53;;;2.05;;
44842;SDS011;31884;52.538;13.820;2024-02-04T03:58:22;8.20;;;2.30;;
44842;SDS011;31884;52.538;13.820;2024-02-04T04:00:54;8.40;;;2.92;;
44842;SDS011;31884;52.538;13.820;2024-02-04T04:03:20;6.82;;;1.90;;
44842;SDS011;31884;52.538;13.820;2024-02-04T04:05:45;6.03;;;1.90;;
44842;SDS011;31884;52.538;13.820;2024-02-04T04:08:11;9.45;;;2.22;;
44842;SDS011;31884;52.538;13.820;2024-02-04T04:10:36;9.63;;;2.63;;
44842;SDS011;31884;52.538;13.820;2024-02-04T04:13:02;10.63;;;2.60;;
44842;SDS011;31884;52.538;13.820;2024-02-04T04:15:27;9.50;;;2.20;;
44842;SDS011;31884;52.538;13.820;2024-02-04T04:17:53;5.03;;;1.55;;
44842;SDS011;31884;52.538;13.820;2024-02-04T04:20:18;6.60;;;2.20;;
44842;SDS011;31884;52.538;13.820;2024-02-04T04:22:44;7.57;;;1.85;;
44842;SDS011;31884;52.538;13.820;2024-02-04T04:25:09;9.75;;;2.47;;
44842;SDS011;31884;52.538;13.820;2024-02-04T04:27:35;7.43;;;2.38;;
44842;SDS011;31884;52.538;13.820;2024-02-04T04:30:00;7.65;;;2.47;;
44842;SDS011;31884;52.538;13.820;2024-02-04T04:32:26;10.85;;;2.20;;
44842;SDS011;31884;52.538;13.820;2024-02-04T04:34:51;15.88;;;2.88;;
44842;SDS011;31884;52.538;13.820;2024-02-04T04:37:17;11.25;;;2.45;;
44842;SDS011;31884;52.538;13.820;2024-02-04T04:39:42;6.68;;;1.83;;
44842;SDS011;31884;52.538;13.820;2024-02-04T04:42:08;5.80;;;2.15;;
44842;SDS011;31884;52.538;13.820;2024-02-04T04:44:33;9.70;;;3.03;;
44842;SDS011;31884;52.538;13.820;2024-02-04T04:46:59;3.97;;;1.52;;
44842;SDS011;31884;52.538;13.820;2024-02-04T04:49:24;6.40;;;1.88;;
44842;SDS011;31884;52.538;13.820;2024-02-04T04:51:50;5.47;;;2.10;;
44842;SDS011;31884;52.538;13.820;2024-02-04T04:54:15;8.50;;;1.98;;
44842;SDS011;31884;52.538;13.820;2024-02-04T04:56:41;4.80;;;2.13;;
44842;SDS011;31884;52.538;13.820;2024-02-04T04:59:07;7.40;;;2.03;;
44842;SDS011;31884;52.538;13.820;2024-02-04T05:01:34;10.27;;;2.58;;
44842;SDS011;31884;52.538;13.820;2024-02-04T05:04:00;5.72;;;2.15;;
44842;SDS011;31884;52.538;13.820;2024-02-04T05:06:25;7.20;;;2.33;;
44842;SDS011;31884;52.538;13.820;2024-02-04T05:08:51;10.27;;;2.55;;
44842;SDS011;31884;52.538;13.820;2024-02-04T05:11:17;7.05;;;3.28;;
44842;SDS011;31884;52.538;13.820;2024-02-04T05:13:42;9.50;;;2.50;;
44842;SDS011;31884;52.538;13.820;2024-02-04T05:16:08;7.38;;;1.73;;
44842;SDS011;31884;52.538;13.820;2024-02-04T05:18:33;7.40;;;2.33;;
44842;SDS011;31884;52.538;13.820;2024-02-04T05:21:00;6.18;;;1.98;;
44842;SDS011;31884;52.538;13.820;2024-02-04T05:23:27;4.63;;;1.75;;
44842;SDS011;31884;52.538;13.820;2024-02-04T05:25:53;7.65;;;2.10;;
44842;SDS011;31884;52.538;13.820;2024-02-04T05:28:18;3.70;;;2.25;;
44842;SDS011;31884;52.538;13.820;2024-02-04T05:30:44;5.97;;;1.40;;
44842;SDS011;31884;52.538;13.820;2024-02-04T05:33:13;9.18;;;2.10;;
44842;SDS011;31884;52.538;13.820;2024-02-04T05:35:38;8.52;;;1.98;;
44842;SDS011;31884;52.538;13.820;2024-02-04T05:38:06;7.53;;;2.25;;
44842;SDS011;31884;52.538;13.820;2024-02-04T05:40:32;8.07;;;2.08;;
44842;SDS011;31884;52.538;13.820;2024-02-04T05:42:57;11.48;;;2.33;;
44842;SDS011;31884;52.538;13.820;2024-02-04T05:45:23;10.48;;;2.22;;
44842;SDS011;31884;52.538;13.820;2024-02-04T05:47:48;9.38;;;2.83;;
44842;SDS011;31884;52.538;13.820;2024-02-04T05:50:14;5.20;;;1.80;;
44842;SDS011;31884;52.538;13.820;2024-02-04T05:52:39;9.07;;;2.42;;
44842;SDS011;31884;52.538;13.820;2024-02-04T05:55:05;4.07;;;1.90;;
44842;SDS011;31884;52.538;13.820;2024-02-04T05:57:31;5.53;;;1.50;;
44842;SDS011;31884;52.538;13.820;2024-02-04T05:59:56;3.90;;;1.55;;
44842;SDS011;31884;52.538;13.820;2024-02-04T06:02:24;5.57;;;1.38;;
44842;SDS011;31884;52.538;13.820;2024-02-04T06:04:49;7.07;;;1.50;;
44842;SDS011;31884;52.538;13.820;2024-02-04T06:07:15;6.50;;;1.60;;
44842;SDS011;31884;52.538;13.820;2024-02-04T06:09:40;8.20;;;1.55;;
44842;SDS011;31884;52.538;13.820;2024-02-04T06:12:06;7.30;;;1.48;;
44842;SDS011;31884;52.538;13.820;2024-02-04T06:14:33;4.55;;;1.85;;
44842;SDS011;31884;52.538;13.820;2024-02-04T06:16:59;5.00;;;1.67;;
44842;SDS011;31884;52.538;13.820;2024-02-04T06:19:25;5.80;;;1.67;;
44842;SDS011;31884;52.538;13.820;2024-02-04T06:21:50;3.35;;;1.00;;
44842;SDS011;31884;52.538;13.820;2024-02-04T06:24:16;8.07;;;2.25;;
44842;SDS011;31884;52.538;13.820;2024-02-04T06:26:41;7.65;;;1.98;;
44842;SDS011;31884;52.538;13.820;2024-02-04T06:29:07;8.98;;;1.73;;
44842;SDS011;31884;52.538;13.820;2024-02-04T06:31:32;4.82;;;1.73;;
44842;SDS011;31884;52.538;13.820;2024-02-04T06:33:57;9.55;;;2.17;;
44842;SDS011;31884;52.538;13.820;2024-02-04T06:36:23;6.78;;;1.67;;
44842;SDS011;31884;52.538;13.820;2024-02-04T06:38:48;8.70;;;1.77;;
44842;SDS011;31884;52.538;13.820;2024-02-04T06:41:14;8.90;;;1.98;;
44842;SDS011;31884;52.538;13.820;2024-02-04T06:43:39;6.80;;;1.70;;
44842;SDS011;31884;52.538;13.820;2024-02-04T06:46:05;9.13;;;2.10;;
44842;SDS011;31884;52.538;13.820;2024-02-04T06:48:30;4.82;;;2.17;;
44842;SDS011;31884;52.538;13.820;2024-02-04T06:50:56;10.02;;;1.67;;
44842;SDS011;31884;52.538;13.820;2024-02-04T06:53:21;6.35;;;1.88;;
44842;SDS011;31884;52.538;13.820;2024-02-04T06:55:47;4.30;;;1.50;;
44842;SDS011;31884;52.538;13.820;2024-02-04T06:58:12;7.32;;;1.80;;
44842;SDS011;31884;52.538;13.820;2024-02-04T07:00:38;4.85;;;1.50;;
44842;SDS011;31884;52.538;13.820;2024-02-04T07:03:03;5.35;;;1.92;;
44842;SDS011;31884;52.538;13.820;2024-02-04T07:05:29;8.77;;;2.63;;
44842;SDS011;31884;52.538;13.820;2024-02-04T07:07:56;9.38;;;1.90;;
44842;SDS011;31884;52.538;13.820;2024-02-04T07:10:21;6.88;;;2.20;;
44842;SDS011;31884;52.538;13.820;2024-02-04T07:12:47;9.57;;;2.38;;
44842;SDS011;31884;52.538;13.820;2024-02-04T07:15:12;7.40;;;1.77;;
44842;SDS011;31884;52.538;13.820;2024-02-04T07:17:38;8.35;;;2.47;;
44842;SDS011;31884;52.538;13.820;2024-02-04T07:20:03;11.60;;;3.08;;
44842;SDS011;31884;52.538;13.820;2024-02-04T07:22:30;9.52;;;2.55;;
44842;SDS011;31884;52.538;13.820;2024-02-04T07:24:56;9.13;;;2.80;;
44842;SDS011;31884;52.538;13.820;2024-02-04T07:27:21;10.55;;;3.42;;
44842;SDS011;31884;52.538;13.820;2024-02-04T07:29:47;8.90;;;3.10;;
44842;SDS011;31884;52.538;13.820;2024-02-04T07:32:13;8.65;;;2.63;;
44842;SDS011;31884;52.538;13.820;2024-02-04T07:34:39;10.02;;;3.95;;
44842;SDS011;31884;52.538;13.820;2024-02-04T07:37:05;7.32;;;3.13;;
44842;SDS011;31884;52.538;13.820;2024-02-04T07:39:31;6.28;;;2.72;;
44842;SDS011;31884;52.538;13.820;2024-02-04T07:41:56;8.18;;;2.75;;
44842;SDS011;31884;52.538;13.820;2024-02-04T07:44:25;10.20;;;3.92;;
44842;SDS011;31884;52.538;13.820;2024-02-04T07:46:54;4.20;;;3.00;;
44842;SDS011;31884;52.538;13.820;2024-02-04T07:49:20;8.48;;;3.47;;
44842;SDS011;31884;52.538;13.820;2024-02-04T07:51:45;6.97;;;3.28;;
44842;SDS011;31884;52.538;13.820;2024-02-04T07:54:11;7.32;;;3.08;;
44842;SDS011;31884;52.538;13.820;2024-02-04T07:56:36;14.35;;;3.80;;
44842;SDS011;31884;52.538;13.820;2024-02-04T07:59:02;13.70;;;3.65;;
44842;SDS011;31884;52.538;13.820;2024-02-04T08:01:28;16.92;;;3.55;;
44842;SDS011;31884;52.538;13.820;2024-02-04T08:03:54;12.77;;;4.95;;
44842;SDS011;31884;52.538;13.820;2024-02-04T08:06:20;9.82;;;3.75;;
44842;SDS011;31884;52.538;13.820;2024-02-04T08:08:45;8.85;;;3.40;;
44842;SDS011;31884;52.538;13.820;2024-02-04T08:11:15;10.63;;;3.20;;
44842;SDS011;31884;52.538;13.820;2024-02-04T08:13:45;11.30;;;3.33;;
44842;SDS011;31884;52.538;13.820;2024-02-04T08:16:10;6.47;;;3.45;;
44842;SDS011;31884;52.538;13.820;2024-02-04T08:18:36;9.20;;;3.63;;
44842;SDS011;31884;52.538;13.820;2024-02-04T08:21:02;12.40;;;3.53;;
44842;SDS011;31884;52.538;13.820;2024-02-04T08:23:28;11.30;;;3.80;;
44842;SDS011;31884;52.538;13.820;2024-02-04T08:25:54;11.00;;;3.70;;
44842;SDS011;31884;52.538;13.820;2024-02-04T08:28:19;8.68;;;3.10;;
44842;SDS011;31884;52.538;13.820;2024-02-04T08:30:45;13.13;;;3.63;;
44842;SDS011;31884;52.538;13.820;2024-02-04T08:33:11;12.52;;;4.00;;
44842;SDS011;31884;52.538;13.820;2024-02-04T08:35:36;8.02;;;3.40;;
44842;SDS011;31884;52.538;13.820;2024-02-04T08:38:02;7.30;;;3.72;;
44842;SDS011;31884;52.538;13.820;2024-02-04T08:40:27;9.70;;;3.45;;
44842;SDS011;31884;52.538;13.820;2024-02-04T08:42:53;10.45;;;4.28;;
44842;SDS011;31884;52.538;13.820;2024-02-04T08:45:18;13.77;;;3.88;;
44842;SDS011;31884;52.538;13.820;2024-02-04T08:47:44;8.13;;;3.00;;
44842;SDS011;31884;52.538;13.820;2024-02-04T08:50:09;9.65;;;2.95;;
44842;SDS011;31884;52.538;13.820;2024-02-04T08:52:37;10.10;;;3.13;;
44842;SDS011;31884;52.538;13.820;2024-02-04T08:55:02;8.75;;;3.58;;
44842;SDS011;31884;52.538;13.820;2024-02-04T08:57:29;10.00;;;3.47;;
44842;SDS011;31884;52.538;13.820;2024-02-04T08:59:54;7.05;;;3.13;;
44842;SDS011;31884;52.538;13.820;2024-02-04T09:02:20;7.75;;;3.25;;
44842;SDS011;31884;52.538;13.820;2024-02-04T09:04:45;8.07;;;2.58;;
44842;SDS011;31884;52.538;13.820;2024-02-04T09:07:11;7.88;;;2.63;;
44842;SDS011;31884;52.538;13.820;2024-02-04T09:09:37;7.13;;;2.67;;
44842;SDS011;31884;52.538;13.820;2024-02-04T09:12:02;8.48;;;2.50;;
44842;SDS011;31884;52.538;13.820;2024-02-04T09:14:28;12.23;;;2.47;;
44842;SDS011;31884;52.538;13.820;2024-02-04T09:16:54;6.53;;;2.17;;
44842;SDS011;31884;52.538;13.820;2024-02-04T09:19:19;8.10;;;2.58;;
44842;SDS011;31884;52.538;13.820;2024-02-04T09:21:45;7.57;;;2.45;;
44842;SDS011;31884;52.538;13.820;2024-02-04T09:24:10;7.55;;;2.63;;
44842;SDS011;31884;52.538;13.820;2024-02-04T09:26:36;7.57;;;2.42;;
44842;SDS011;31884;52.538;13.820;2024-02-04T09:29:01;8.52;;;1.92;;
44842;SDS011;31884;52.538;13.820;2024-02-04T09:31:27;14.43;;;2.35;;
44842;SDS011;31884;52.538;13.820;2024-02-04T09:33:53;7.45;;;2.50;;
44842;SDS011;31884;52.538;13.820;2024-02-04T09:36:18;10.68;;;2.42;;
44842;SDS011;31884;52.538;13.820;2024-02-04T09:38:44;8.30;;;2.08;;
44842;SDS011;31884;52.538;13.820;2024-02-04T09:41:09;10.82;;;3.50;;
44842;SDS011;31884;52.538;13.820;2024-02-04T09:43:35;11.95;;;2.83;;
44842;SDS011;31884;52.538;13.820;2024-02-04T09:46:02;11.13;;;2.80;;
44842;SDS011;31884;52.538;13.820;2024-02-04T09:48:30;5.63;;;2.20;;
44842;SDS011;31884;52.538;13.820;2024-02-04T09:50:57;9.80;;;2.30;;
44842;SDS011;31884;52.538;13.820;2024-02-04T09:53:26;6.65;;;2.05;;
44842;SDS011;31884;52.538;13.820;2024-02-04T09:55:57;13.15;;;3.03;;
44842;SDS011;31884;52.538;13.820;2024-02-04T09:58:24;10.02;;;2.10;;
44842;SDS011;31884;52.538;13.820;2024-02-04T10:00:50;11.60;;;2.50;;
44842;SDS011;31884;52.538;13.820;2024-02-04T10:03:16;10.02;;;2.22;;
44842;SDS011;31884;52.538;13.820;2024-02-04T10:05:41;7.45;;;1.70;;
44842;SDS011;31884;52.538;13.820;2024-02-04T10:08:07;7.63;;;2.50;;
44842;SDS011;31884;52.538;13.820;2024-02-04T10:10:33;8.13;;;1.90;;
44842;SDS011;31884;52.538;13.820;2024-02-04T10:12:58;7.57;;;2.03;;
44842;SDS011;31884;52.538;13.820;2024-02-04T10:15:23;8.48;;;2.05;;
44842;SDS011;31884;52.538;13.820;2024-02-04T10:17:55;8.15;;;1.90;;
44842;SDS011;31884;52.538;13.820;2024-02-04T10:20:20;7.07;;;2.08;;
44842;SDS011;31884;52.538;13.820;2024-02-04T10:22:45;6.03;;;1.90;;
44842;SDS011;31884;52.538;13.820;2024-02-04T10:25:11;13.15;;;3.05;;
44842;SDS011;31884;52.538;13.820;2024-02-04T10:27:37;5.18;;;1.98;;
44842;SDS011;31884;52.538;13.820;2024-02-04T10:30:03;6.38;;;1.38;;
44842;SDS011;31884;52.538;13.820;2024-02-04T10:32:30;7.65;;;1.40;;
44842;SDS011;31884;52.538;13.820;2024-02-04T10:34:57;5.95;;;1.75;;
44842;SDS011;31884;52.538;13.820;2024-02-04T10:37:24;7.85;;;1.90;;
44842;SDS011;31884;52.538;13.820;2024-02-04T10:39:49;8.68;;;1.55;;
44842;SDS011;31884;52.538;13.820;2024-02-04T10:42:15;7.97;;;1.85;;
44842;SDS011;31884;52.538;13.820;2024-02-04T10:44:47;7.45;;;2.03;;
44842;SDS011;31884;52.538;13.820;2024-02-04T10:47:17;13.77;;;1.85;;
44842;SDS011;31884;52.538;13.820;2024-02-04T10:49:51;4.93;;;1.30;;
44842;SDS011;31884;52.538;13.820;2024-02-04T10:52:22;4.35;;;1.52;;
44842;SDS011;31884;52.538;13.820;2024-02-04T10:54:50;4.72;;;1.73;;
44842;SDS011;31884;52.538;13.820;2024-02-04T10:57:20;6.80;;;1.30;;
44842;SDS011;31884;52.538;13.820;2024-02-04T10:59:47;5.25;;;1.55;;
44842;SDS011;31884;52.538;13.820;2024-02-04T11:02:14;5.88;;;1.52;;
44842;SDS011;31884;52.538;13.820;2024-02-04T11:04:41;3.70;;;1.35;;
44842;SDS011;31884;52.538;13.820;2024-02-04T11:07:07;7.03;;;1.38;;
44842;SDS011;31884;52.538;13.820;2024-02-04T11:09:35;7.53;;;1.48;;
44842;SDS011;31884;52.538;13.820;2024-02-04T11:12:01;7.53;;;1.45;;
44842;SDS011;31884;52.538;13.820;2024-02-04T11:14:31;10.93;;;1.50;;
44842;SDS011;31884;52.538;13.820;2024-02-04T11:17:04;6.55;;;1.90;;
44842;SDS011;31884;52.538;13.820;2024-02-04T11:25:17;4.70;;;1.77;;
44842;SDS011;31884;52.538;13.820;2024-02-04T11:28:03;3.35;;;1.17;;
44842;SDS011;31884;52.538;13.820;2024-02-04T11:30:33;5.25;;;1.63;;
44842;SDS011;31884;52.538;13.820;2024-02-04T11:33:05;9.45;;;1.38;;
44842;SDS011;31884;52.538;13.820;2024-02-04T11:35:35;6.85;;;1.45;;
44842;SDS011;31884;52.538;13.820;2024-02-04T11:38:02;4.72;;;1.48;;
44842;SDS011;31884;52.538;13.820;2024-02-04T11:40:35;6.95;;;1.63;;
44842;SDS011;31884;52.538;13.820;2024-02-04T11:43:05;7.35;;;1.63;;
44842;SDS011;31884;52.538;13.820;2024-02-04T11:45:31;5.50;;;1.58;;
44842;SDS011;31884;52.538;13.820;2024-02-04T11:48:00;11.88;;;1.80;;
44842;SDS011;31884;52.538;13.820;2024-02-04T11:50:27;4.85;;;1.40;;
44842;SDS011;31884;52.538;13.820;2024-02-04T11:53:12;4.63;;;1.42;;
44842;SDS011;31884;52.538;13.820;2024-02-04T11:55:39;2.78;;;1.08;;
44842;SDS011;31884;52.538;13.820;2024-02-04T11:58:05;4.65;;;1.83;;
44842;SDS011;31884;52.538;13.820;2024-02-04T12:00:32;4.70;;;1.30;;
44842;SDS011;31884;52.538;13.820;2024-02-04T12:03:02;3.83;;;1.30;;
44842;SDS011;31884;52.538;13.820;2024-02-04T12:05:30;3.85;;;1.33;;
44842;SDS011;31884;52.538;13.820;2024-02-04T12:07:57;3.22;;;1.38;;
44842;SDS011;31884;52.538;13.820;2024-02-04T12:10:24;3.05;;;1.10;;
44842;SDS011;31884;52.538;13.820;2024-02-04T12:12:51;6.88;;;1.13;;
44842;SDS011;31884;52.538;13.820;2024-02-04T12:15:17;4.50;;;1.35;;
44842;SDS011;31884;52.538;13.820;2024-02-04T12:17:42;4.38;;;1.27;;
44842;SDS011;31884;52.538;13.820;2024-02-04T12:20:09;6.57;;;1.58;;
44842;SDS011;31884;52.538;13.820;2024-02-04T12:22:35;4.75;;;1.95;;
44842;SDS011;31884;52.538;13.820;2024-02-04T12:25:02;6.88;;;1.65;;
44842;SDS011;31884;52.538;13.820;2024-02-04T12:27:28;4.57;;;1.58;;
44842;SDS011;31884;52.538;13.820;2024-02-04T12:29:54;6.82;;;1.45;;
44842;SDS011;31884;52.538;13.820;2024-02-04T12:32:21;4.10;;;1.52;;
44842;SDS011;31884;52.538;13.820;2024-02-04T12:34:46;9.10;;;2.22;;
44842;SDS011;31884;52.538;13.820;2024-02-04T12:37:12;8.63;;;1.88;;
44842;SDS011;31884;52.538;13.820;2024-02-04T12:39:38;6.00;;;2.17;;
44842;SDS011;31884;52.538;13.820;2024-02-04T12:42:03;3.53;;;1.35;;
44842;SDS011;31884;52.538;13.820;2024-02-04T12:44:30;6.30;;;1.52;;
44842;SDS011;31884;52.538;13.820;2024-02-04T12:46:56;7.38;;;1.35;;
44842;SDS011;31884;52.538;13.820;2024-02-04T12:49:21;6.72;;;1.52;;
44842;SDS011;31884;52.538;13.820;2024-02-04T12:51:47;5.40;;;1.63;;
44842;SDS011;31884;52.538;13.820;2024-02-04T12:54:13;6.78;;;2.15;;
44842;SDS011;31884;52.538;13.820;2024-02-04T12:56:39;5.30;;;1.50;;
44842;SDS011;31884;52.538;13.820;2024-02-04T12:59:05;6.10;;;1.50;;
44842;SDS011;31884;52.538;13.820;2024-02-04T13:01:30;8.40;;;1.50;;
44842;SDS011;31884;52.538;13.820;2024-02-04T13:03:56;6.78;;;2.00;;
44842;SDS011;31884;52.538;13.820;2024-02-04T13:06:21;6.47;;;1.83;;
44842;SDS011;31884;52.538;13.820;2024-02-04T13:08:47;7.43;;;2.17;;
44842;SDS011;31884;52.538;13.820;2024-02-04T13:11:19;10.38;;;2.20;;
44842;SDS011;31884;52.538;13.820;2024-02-04T13:13:44;7.22;;;1.67;;
44842;SDS011;31884;52.538;13.820;2024-02-04T13:16:10;3.90;;;1.40;;
44842;SDS011;31884;52.538;13.820;2024-02-04T13:18:35;9.00;;;1.70;;
44842;SDS011;31884;52.538;13.820;2024-02-04T13:21:01;7.95;;;1.58;;
44842;SDS011;31884;52.538;13.820;2024-02-04T13:23:27;4.20;;;1.58;;
44842;SDS011;31884;52.538;13.820;2024-02-04T13:25:53;5.55;;;1.52;;
44842;SDS011;31884;52.538;13.820;2024-02-04T13:28:18;6.50;;;1.95;;
44842;SDS011;31884;52.538;13.820;2024-02-04T13:30:44;7.30;;;1.65;;
44842;SDS011;31884;52.538;13.820;2024-02-04T13:33:09;5.47;;;1.35;;
44842;SDS011;31884;52.538;13.820;2024-02-04T13:35:35;8.98;;;1.58;;
44842;SDS011;31884;52.538;13.820;2024-02-04T13:38:01;6.50;;;1.80;;
44842;SDS011;31884;52.538;13.820;2024-02-04T13:40:27;6.40;;;1.58;;
44842;SDS011;31884;52.538;13.820;2024-02-04T13:42:52;6.57;;;2.33;;
44842;SDS011;31884;52.538;13.820;2024-02-04T13:45:18;6.68;;;2.40;;
44842;SDS011;31884;52.538;13.820;2024-02-04T13:47:44;6.93;;;1.60;;
44842;SDS011;31884;52.538;13.820;2024-02-04T13:50:10;10.27;;;2.00;;
44842;SDS011;31884;52.538;13.820;2024-02-04T13:52:36;6.10;;;1.42;;
44842;SDS011;31884;52.538;13.820;2024-02-04T13:55:02;6.60;;;1.50;;
44842;SDS011;31884;52.538;13.820;2024-02-04T13:57:32;10.65;;;1.52;;
44842;SDS011;31884;52.538;13.820;2024-02-04T13:59:57;5.82;;;1.85;;
44842;SDS011;31884;52.538;13.820;2024-02-04T14:02:23;4.35;;;1.50;;
44842;SDS011;31884;52.538;13.820;2024-02-04T14:04:51;5.13;;;1.75;;
44842;SDS011;31884;52.538;13.820;2024-02-04T14:07:17;8.38;;;1.92;;
44842;SDS011;31884;52.538;13.820;2024-02-04T14:09:43;8.43;;;1.65;;
44842;SDS011;31884;52.538;13.820;2024-02-04T14:12:08;6.40;;;1.85;;
44842;SDS011;31884;52.538;13.820;2024-02-04T14:14:36;8.73;;;1.65;;
44842;SDS011;31884;52.538;13.820;2024-02-04T14:17:01;9.40;;;1.80;;
44842;SDS011;31884;52.538;13.820;2024-02-04T14:19:27;3.92;;;1.67;;
44842;SDS011;31884;52.538;13.820;2024-02-04T14:21:53;7.75;;;1.75;;
44842;SDS011;31884;52.538;13.820;2024-02-04T14:24:18;5.25;;;1.98;;
44842;SDS011;31884;52.538;13.820;2024-02-04T14:26:43;9.10;;;2.42;;
44842;SDS011;31884;52.538;13.820;2024-02-04T14:29:09;9.18;;;2.25;;
44842;SDS011;31884;52.538;13.820;2024-02-04T14:31:35;6.13;;;2.10;;
44842;SDS011;31884;52.538;13.820;2024-02-04T14:34:01;9.20;;;1.60;;
44842;SDS011;31884;52.538;13.820;2024-02-04T14:36:26;10.18;;;2.05;;